sensor_id;sensor_type;location;lat;lon;timestamp;temperature;humidity
26621;DHT22;14253;44.840;10.444;2022-11-15T00:02:37;7.50;99.90
26621;DHT22;14253;44.840;10.444;2022-11-15T00:05:22;7.60;99.90
26621;DHT22;14253;44.840;10.444;2022-11-15T00:08:06;7.60;99.90
26621;DHT22;14253;44.840;10.444;2022-11-15T00:10:55;7.60;99.90
26621;DHT22;14253;44.840;10.444;2022-11-15T00:13:40;7.50;99.90
26621;DHT22;14253;44.840;10.444;2022-11-15T00:16:25;7.40;99.90
26621;DHT22;14253;44.840;10.444;2022-11-15T00:19:09;7.40;99.90
26621;DHT22;14253;44.840;10.444;2022-11-15T00:21:54;7.40;99.90
26621;DHT22;14253;44.840;10.444;2022-11-15T00:24:39;7.50;99.90
26621;DHT22;14253;44.840;10.444;2022-11-15T00:27:23;7.50;99.90
26621;DHT22;14253;44.840;10.444;2022-11-15T00:30:08;7.50;99.90
26621;DHT22;14253;44.840;10.444;2022-11-15T00:32:53;7.50;99.90
26621;DHT22;14253;44.840;10.444;2022-11-15T00:35:37;7.50;99.90
26621;DHT22;14253;44.840;10.444;2022-11-15T00:38:22;7.50;99.90
26621;DHT22;14253;44.840;10.444;2022-11-15T00:41:07;7.50;99.90
26621;DHT22;14253;44.840;10.444;2022-11-15T00:43:52;7.60;99.90
26621;DHT22;14253;44.840;10.444;2022-11-15T00:46:36;7.60;99.90
26621;DHT22;14253;44.840;10.444;2022-11-15T00:49:21;7.50;99.90
26621;DHT22;14253;44.840;10.444;2022-11-15T00:52:05;7.50;99.90
26621;DHT22;14253;44.840;10.444;2022-11-15T00:54:50;7.40;99.90
26621;DHT22;14253;44.840;10.444;2022-11-15T00:57:35;7.40;99.90
26621;DHT22;14253;44.840;10.444;2022-11-15T01:00:19;7.40;99.90
26621;DHT22;14253;44.840;10.444;2022-11-15T01:03:04;7.40;99.90
26621;DHT22;14253;44.840;10.444;2022-11-15T01:05:49;7.40;99.90
26621;DHT22;14253;44.840;10.444;2022-11-15T01:08:33;7.50;99.90
26621;DHT22;14253;44.840;10.444;2022-11-15T01:11:18;7.50;99.90
26621;DHT22;14253;44.840;10.444;2022-11-15T01:14:03;7.30;99.90
26621;DHT22;14253;44.840;10.444;2022-11-15T01:16:47;7.40;99.90
26621;DHT22;14253;44.840;10.444;2022-11-15T01:19:32;7.30;99.90
26621;DHT22;14253;44.840;10.444;2022-11-15T01:22:17;7.30;99.90
26621;DHT22;14253;44.840;10.444;2022-11-15T01:25:02;7.20;99.90
26621;DHT22;14253;44.840;10.444;2022-11-15T01:27:46;7.20;99.90
26621;DHT22;14253;44.840;10.444;2022-11-15T01:30:31;7.10;99.90
26621;DHT22;14253;44.840;10.444;2022-11-15T01:33:16;7.10;99.90
26621;DHT22;14253;44.840;10.444;2022-11-15T01:36:04;7.10;99.90
26621;DHT22;14253;44.840;10.444;2022-11-15T01:38:56;7.10;99.90
26621;DHT22;14253;44.840;10.444;2022-11-15T01:41:41;7.10;99.90
26621;DHT22;14253;44.840;10.444;2022-11-15T01:44:37;7.10;99.90
26621;DHT22;14253;44.840;10.444;2022-11-15T01:47:33;7.20;99.90
26621;DHT22;14253;44.840;10.444;2022-11-15T01:50:25;7.10;99.90
26621;DHT22;14253;44.840;10.444;2022-11-15T01:53:12;7.10;99.90
26621;DHT22;14253;44.840;10.444;2022-11-15T01:55:57;7.10;99.90
26621;DHT22;14253;44.840;10.444;2022-11-15T01:58:43;7.00;99.90
26621;DHT22;14253;44.840;10.444;2022-11-15T02:01:30;7.00;99.90
26621;DHT22;14253;44.840;10.444;2022-11-15T02:04:26;6.90;99.90
26621;DHT22;14253;44.840;10.444;2022-11-15T02:07:15;6.90;99.90
26621;DHT22;14253;44.840;10.444;2022-11-15T02:10:04;6.90;99.90
26621;DHT22;14253;44.840;10.444;2022-11-15T02:12:51;6.80;99.90
26621;DHT22;14253;44.840;10.444;2022-11-15T02:15:43;6.80;99.90
26621;DHT22;14253;44.840;10.444;2022-11-15T02:18:48;6.80;99.90
26621;DHT22;14253;44.840;10.444;2022-11-15T02:42:33;6.70;99.90
26621;DHT22;14253;44.840;10.444;2022-11-15T02:46:03;6.70;99.90
26621;DHT22;14253;44.840;10.444;2022-11-15T02:48:48;6.80;99.90
26621;DHT22;14253;44.840;10.444;2022-11-15T02:51:33;6.80;99.90
26621;DHT22;14253;44.840;10.444;2022-11-15T02:54:24;6.80;99.90
26621;DHT22;14253;44.840;10.444;2022-11-15T02:57:15;6.90;99.90
26621;DHT22;14253;44.840;10.444;2022-11-15T03:00:09;7.00;99.90
26621;DHT22;14253;44.840;10.444;2022-11-15T03:11:57;7.20;99.90
26621;DHT22;14253;44.840;10.444;2022-11-15T03:15:17;7.10;99.90
26621;DHT22;14253;44.840;10.444;2022-11-15T03:18:19;7.30;99.90
26621;DHT22;14253;44.840;10.444;2022-11-15T03:21:05;7.30;99.90
26621;DHT22;14253;44.840;10.444;2022-11-15T03:23:52;7.40;99.90
26621;DHT22;14253;44.840;10.444;2022-11-15T03:26:41;7.40;99.90
26621;DHT22;14253;44.840;10.444;2022-11-15T03:29:31;7.40;99.90
26621;DHT22;14253;44.840;10.444;2022-11-15T03:32:27;7.40;99.90
26621;DHT22;14253;44.840;10.444;2022-11-15T03:35:21;7.40;99.90
26621;DHT22;14253;44.840;10.444;2022-11-15T03:38:25;7.50;99.90
26621;DHT22;14253;44.840;10.444;2022-11-15T03:41:17;7.50;99.90
26621;DHT22;14253;44.840;10.444;2022-11-15T03:47:06;7.60;99.90
26621;DHT22;14253;44.840;10.444;2022-11-15T03:49:55;7.60;99.90
26621;DHT22;14253;44.840;10.444;2022-11-15T03:52:41;7.50;99.90
26621;DHT22;14253;44.840;10.444;2022-11-15T03:55:27;7.60;99.90
26621;DHT22;14253;44.840;10.444;2022-11-15T03:58:11;7.60;99.90
26621;DHT22;14253;44.840;10.444;2022-11-15T04:00:56;7.70;99.90
26621;DHT22;14253;44.840;10.444;2022-11-15T04:03:40;7.70;99.90
26621;DHT22;14253;44.840;10.444;2022-11-15T04:06:25;7.70;99.90
26621;DHT22;14253;44.840;10.444;2022-11-15T04:09:10;7.70;99.90
26621;DHT22;14253;44.840;10.444;2022-11-15T04:11:54;7.80;99.90
26621;DHT22;14253;44.840;10.444;2022-11-15T04:14:39;7.90;99.90
26621;DHT22;14253;44.840;10.444;2022-11-15T04:17:46;7.90;99.90
26621;DHT22;14253;44.840;10.444;2022-11-15T04:20:31;7.80;99.90
26621;DHT22;14253;44.840;10.444;2022-11-15T04:23:33;7.80;99.90
26621;DHT22;14253;44.840;10.444;2022-11-15T04:26:37;7.80;99.90
26621;DHT22;14253;44.840;10.444;2022-11-15T04:29:21;7.70;99.90
26621;DHT22;14253;44.840;10.444;2022-11-15T04:32:21;7.80;99.90
26621;DHT22;14253;44.840;10.444;2022-11-15T04:35:06;7.90;99.90
26621;DHT22;14253;44.840;10.444;2022-11-15T04:37:50;7.90;99.90
26621;DHT22;14253;44.840;10.444;2022-11-15T04:40:52;8.00;99.90
26621;DHT22;14253;44.840;10.444;2022-11-15T04:44:14;8.10;99.90
26621;DHT22;14253;44.840;10.444;2022-11-15T04:47:31;8.00;99.90
26621;DHT22;14253;44.840;10.444;2022-11-15T04:50:57;8.10;99.90
26621;DHT22;14253;44.840;10.444;2022-11-15T04:54:19;8.10;99.90
26621;DHT22;14253;44.840;10.444;2022-11-15T04:58:05;8.10;99.90
26621;DHT22;14253;44.840;10.444;2022-11-15T05:01:28;8.10;99.90
26621;DHT22;14253;44.840;10.444;2022-11-15T05:04:58;8.20;99.90
26621;DHT22;14253;44.840;10.444;2022-11-15T05:08:20;8.20;99.90
26621;DHT22;14253;44.840;10.444;2022-11-15T05:11:41;8.30;99.90
26621;DHT22;14253;44.840;10.444;2022-11-15T05:14:58;8.20;99.90
26621;DHT22;14253;44.840;10.444;2022-11-15T05:18:17;8.20;99.90
26621;DHT22;14253;44.840;10.444;2022-11-15T05:21:37;8.20;99.90
26621;DHT22;14253;44.840;10.444;2022-11-15T05:24:55;8.20;99.90
26621;DHT22;14253;44.840;10.444;2022-11-15T05:28:15;8.30;99.90
26621;DHT22;14253;44.840;10.444;2022-11-15T05:31:31;8.30;99.90
26621;DHT22;14253;44.840;10.444;2022-11-15T05:34:49;8.40;99.90
26621;DHT22;14253;44.840;10.444;2022-11-15T05:37:51;8.40;99.90
26621;DHT22;14253;44.840;10.444;2022-11-15T05:40:39;8.40;99.90
26621;DHT22;14253;44.840;10.444;2022-11-15T05:43:39;8.50;99.90
26621;DHT22;14253;44.840;10.444;2022-11-15T05:46:24;8.50;99.90
26621;DHT22;14253;44.840;10.444;2022-11-15T05:49:12;8.40;99.90
26621;DHT22;14253;44.840;10.444;2022-11-15T05:51:58;8.40;99.90
26621;DHT22;14253;44.840;10.444;2022-11-15T05:54:43;8.50;99.90
26621;DHT22;14253;44.840;10.444;2022-11-15T05:57:28;8.50;99.90
26621;DHT22;14253;44.840;10.444;2022-11-15T06:00:12;8.50;99.90
26621;DHT22;14253;44.840;10.444;2022-11-15T06:02:57;8.60;99.90
26621;DHT22;14253;44.840;10.444;2022-11-15T06:05:42;8.60;99.90
26621;DHT22;14253;44.840;10.444;2022-11-15T06:08:27;8.60;99.90
26621;DHT22;14253;44.840;10.444;2022-11-15T06:11:20;8.60;99.90
26621;DHT22;14253;44.840;10.444;2022-11-15T06:14:08;8.60;99.90
26621;DHT22;14253;44.840;10.444;2022-11-15T06:16:53;8.60;99.90
26621;DHT22;14253;44.840;10.444;2022-11-15T06:19:38;8.60;99.90
26621;DHT22;14253;44.840;10.444;2022-11-15T06:22:22;8.50;99.90
26621;DHT22;14253;44.840;10.444;2022-11-15T06:25:07;8.60;99.90
26621;DHT22;14253;44.840;10.444;2022-11-15T06:27:54;8.50;99.90
26621;DHT22;14253;44.840;10.444;2022-11-15T06:30:39;8.50;99.90
26621;DHT22;14253;44.840;10.444;2022-11-15T06:33:23;8.60;99.90
26621;DHT22;14253;44.840;10.444;2022-11-15T06:36:11;8.60;99.90
26621;DHT22;14253;44.840;10.444;2022-11-15T06:39:01;8.60;99.90
26621;DHT22;14253;44.840;10.444;2022-11-15T06:45:22;8.70;99.90
26621;DHT22;14253;44.840;10.444;2022-11-15T06:48:14;8.70;99.90
26621;DHT22;14253;44.840;10.444;2022-11-15T06:51:01;8.70;99.90
26621;DHT22;14253;44.840;10.444;2022-11-15T06:53:46;8.70;99.90
26621;DHT22;14253;44.840;10.444;2022-11-15T06:56:31;8.80;99.90
26621;DHT22;14253;44.840;10.444;2022-11-15T06:59:15;8.80;99.90
26621;DHT22;14253;44.840;10.444;2022-11-15T07:02:00;8.80;99.90
26621;DHT22;14253;44.840;10.444;2022-11-15T07:04:44;8.80;99.90
26621;DHT22;14253;44.840;10.444;2022-11-15T07:07:29;8.80;99.90
26621;DHT22;14253;44.840;10.444;2022-11-15T07:10:14;8.90;99.90
26621;DHT22;14253;44.840;10.444;2022-11-15T07:12:59;8.90;99.90
26621;DHT22;14253;44.840;10.444;2022-11-15T07:15:44;8.90;99.90
26621;DHT22;14253;44.840;10.444;2022-11-15T07:18:29;8.90;99.90
26621;DHT22;14253;44.840;10.444;2022-11-15T07:21:14;9.00;99.90
26621;DHT22;14253;44.840;10.444;2022-11-15T07:23:58;9.00;99.90
26621;DHT22;14253;44.840;10.444;2022-11-15T07:26:43;9.00;99.90
26621;DHT22;14253;44.840;10.444;2022-11-15T07:29:28;9.10;99.90
26621;DHT22;14253;44.840;10.444;2022-11-15T07:32:13;9.10;99.90
26621;DHT22;14253;44.840;10.444;2022-11-15T07:34:57;9.10;99.90
26621;DHT22;14253;44.840;10.444;2022-11-15T07:37:43;9.10;99.90
26621;DHT22;14253;44.840;10.444;2022-11-15T07:40:29;9.10;99.90
26621;DHT22;14253;44.840;10.444;2022-11-15T07:43:14;9.10;99.90
26621;DHT22;14253;44.840;10.444;2022-11-15T07:45:58;9.10;99.90
26621;DHT22;14253;44.840;10.444;2022-11-15T07:48:43;9.10;99.90
26621;DHT22;14253;44.840;10.444;2022-11-15T07:51:28;9.10;99.90
26621;DHT22;14253;44.840;10.444;2022-11-15T07:54:13;9.20;99.90
26621;DHT22;14253;44.840;10.444;2022-11-15T07:56:57;9.20;99.90
26621;DHT22;14253;44.840;10.444;2022-11-15T07:59:42;9.20;99.90
26621;DHT22;14253;44.840;10.444;2022-11-15T08:02:27;9.30;99.90
26621;DHT22;14253;44.840;10.444;2022-11-15T08:05:11;9.40;99.90
26621;DHT22;14253;44.840;10.444;2022-11-15T08:07:57;9.40;99.90
26621;DHT22;14253;44.840;10.444;2022-11-15T08:10:41;9.50;99.90
26621;DHT22;14253;44.840;10.444;2022-11-15T08:13:26;9.60;99.90
26621;DHT22;14253;44.840;10.444;2022-11-15T08:16:11;9.70;99.90
26621;DHT22;14253;44.840;10.444;2022-11-15T08:18:56;9.70;99.90
26621;DHT22;14253;44.840;10.444;2022-11-15T08:21:40;9.70;99.90
26621;DHT22;14253;44.840;10.444;2022-11-15T08:24:25;9.90;99.90
26621;DHT22;14253;44.840;10.444;2022-11-15T08:27:10;9.90;99.90
26621;DHT22;14253;44.840;10.444;2022-11-15T08:29:58;9.90;99.90
26621;DHT22;14253;44.840;10.444;2022-11-15T08:32:43;9.90;99.90
26621;DHT22;14253;44.840;10.444;2022-11-15T08:35:42;9.90;99.90
26621;DHT22;14253;44.840;10.444;2022-11-15T08:38:27;9.90;99.90
26621;DHT22;14253;44.840;10.444;2022-11-15T08:41:36;10.00;99.90
26621;DHT22;14253;44.840;10.444;2022-11-15T08:44:38;10.10;99.90
26621;DHT22;14253;44.840;10.444;2022-11-15T08:47:22;10.10;99.90
26621;DHT22;14253;44.840;10.444;2022-11-15T08:50:08;10.10;99.90
26621;DHT22;14253;44.840;10.444;2022-11-15T08:52:53;10.10;99.90
26621;DHT22;14253;44.840;10.444;2022-11-15T08:55:38;10.20;99.90
26621;DHT22;14253;44.840;10.444;2022-11-15T08:58:23;10.20;99.90
26621;DHT22;14253;44.840;10.444;2022-11-15T09:01:20;10.20;99.90
26621;DHT22;14253;44.840;10.444;2022-11-15T09:04:04;10.20;99.90
26621;DHT22;14253;44.840;10.444;2022-11-15T09:06:49;10.10;99.90
26621;DHT22;14253;44.840;10.444;2022-11-15T09:09:34;10.20;99.90
26621;DHT22;14253;44.840;10.444;2022-11-15T09:12:18;10.20;99.90
26621;DHT22;14253;44.840;10.444;2022-11-15T09:15:04;10.20;99.90
26621;DHT22;14253;44.840;10.444;2022-11-15T09:17:49;10.30;99.90
26621;DHT22;14253;44.840;10.444;2022-11-15T09:20:34;10.30;99.90
26621;DHT22;14253;44.840;10.444;2022-11-15T09:23:18;10.20;99.90
26621;DHT22;14253;44.840;10.444;2022-11-15T09:26:04;10.20;99.90
26621;DHT22;14253;44.840;10.444;2022-11-15T09:28:48;10.20;99.90
26621;DHT22;14253;44.840;10.444;2022-11-15T09:31:33;10.20;99.90
26621;DHT22;14253;44.840;10.444;2022-11-15T09:34:18;10.30;99.90
26621;DHT22;14253;44.840;10.444;2022-11-15T09:37:02;10.30;99.90
26621;DHT22;14253;44.840;10.444;2022-11-15T09:39:47;10.30;99.90
26621;DHT22;14253;44.840;10.444;2022-11-15T09:43:09;10.30;99.90
26621;DHT22;14253;44.840;10.444;2022-11-15T09:49:09;10.20;99.90
26621;DHT22;14253;44.840;10.444;2022-11-15T09:52:07;10.30;99.90
26621;DHT22;14253;44.840;10.444;2022-11-15T09:54:45;10.30;99.90
26621;DHT22;14253;44.840;10.444;2022-11-15T10:05:24;10.20;99.90
26621;DHT22;14253;44.840;10.444;2022-11-15T10:08:35;10.20;99.90
26621;DHT22;14253;44.840;10.444;2022-11-15T10:11:17;10.30;99.90
26621;DHT22;14253;44.840;10.444;2022-11-15T10:13:46;10.30;99.90
26621;DHT22;14253;44.840;10.444;2022-11-15T10:19:01;10.40;99.90
26621;DHT22;14253;44.840;10.444;2022-11-15T10:24:28;10.40;99.90
26621;DHT22;14253;44.840;10.444;2022-11-15T10:26:57;10.50;99.90
26621;DHT22;14253;44.840;10.444;2022-11-15T10:29:24;10.50;99.90
26621;DHT22;14253;44.840;10.444;2022-11-15T10:31:50;10.60;99.90
26621;DHT22;14253;44.840;10.444;2022-11-15T10:34:21;10.60;99.90
26621;DHT22;14253;44.840;10.444;2022-11-15T10:36:58;10.60;99.90
26621;DHT22;14253;44.840;10.444;2022-11-15T10:39:24;10.70;99.90
26621;DHT22;14253;44.840;10.444;2022-11-15T10:41:51;10.70;99.90
26621;DHT22;14253;44.840;10.444;2022-11-15T10:44:18;10.80;99.90
26621;DHT22;14253;44.840;10.444;2022-11-15T10:46:47;10.80;99.90
26621;DHT22;14253;44.840;10.444;2022-11-15T10:49:18;10.80;99.90
26621;DHT22;14253;44.840;10.444;2022-11-15T10:51:53;10.70;99.90
26621;DHT22;14253;44.840;10.444;2022-11-15T10:54:24;10.80;99.90
26621;DHT22;14253;44.840;10.444;2022-11-15T10:56:54;10.80;99.90
26621;DHT22;14253;44.840;10.444;2022-11-15T10:59:33;10.80;99.90
26621;DHT22;14253;44.840;10.444;2022-11-15T11:02:01;10.70;99.90
26621;DHT22;14253;44.840;10.444;2022-11-15T11:04:27;10.80;99.90
26621;DHT22;14253;44.840;10.444;2022-11-15T11:06:55;10.80;99.90
26621;DHT22;14253;44.840;10.444;2022-11-15T11:09:32;10.80;99.90
26621;DHT22;14253;44.840;10.444;2022-11-15T11:11:59;10.80;99.90
26621;DHT22;14253;44.840;10.444;2022-11-15T11:14:30;10.90;99.90
26621;DHT22;14253;44.840;10.444;2022-11-15T11:17:10;10.90;99.90
26621;DHT22;14253;44.840;10.444;2022-11-15T11:19:49;11.00;99.90
26621;DHT22;14253;44.840;10.444;2022-11-15T11:33:22;11.00;99.90
26621;DHT22;14253;44.840;10.444;2022-11-15T11:38:39;10.90;99.90
26621;DHT22;14253;44.840;10.444;2022-11-15T11:46:59;10.80;99.90
26621;DHT22;14253;44.840;10.444;2022-11-15T11:49:34;10.90;99.90
26621;DHT22;14253;44.840;10.444;2022-11-15T11:52:28;10.80;99.90
26621;DHT22;14253;44.840;10.444;2022-11-15T12:00:21;10.80;99.90
26621;DHT22;14253;44.840;10.444;2022-11-15T12:05:35;10.60;99.90
26621;DHT22;14253;44.840;10.444;2022-11-15T12:10:46;10.60;99.90
26621;DHT22;14253;44.840;10.444;2022-11-15T12:13:21;10.60;99.90
26621;DHT22;14253;44.840;10.444;2022-11-15T12:15:57;10.60;99.90
26621;DHT22;14253;44.840;10.444;2022-11-15T12:18:26;10.60;99.90
26621;DHT22;14253;44.840;10.444;2022-11-15T12:21:13;10.70;99.90
26621;DHT22;14253;44.840;10.444;2022-11-15T12:23:46;10.70;99.90
26621;DHT22;14253;44.840;10.444;2022-11-15T12:26:24;10.60;99.90
26621;DHT22;14253;44.840;10.444;2022-11-15T12:29:01;10.60;99.90
26621;DHT22;14253;44.840;10.444;2022-11-15T12:34:03;10.70;99.90
26621;DHT22;14253;44.840;10.444;2022-11-15T12:36:40;10.70;99.90
26621;DHT22;14253;44.840;10.444;2022-11-15T12:39:07;10.70;99.90
26621;DHT22;14253;44.840;10.444;2022-11-15T12:41:39;10.80;99.90
26621;DHT22;14253;44.840;10.444;2022-11-15T12:44:11;10.80;99.90
26621;DHT22;14253;44.840;10.444;2022-11-15T12:49:53;10.90;99.90
26621;DHT22;14253;44.840;10.444;2022-11-15T12:59:56;10.90;99.90
26621;DHT22;14253;44.840;10.444;2022-11-15T13:02:41;10.80;99.90
26621;DHT22;14253;44.840;10.444;2022-11-15T13:17:53;10.70;99.90
26621;DHT22;14253;44.840;10.444;2022-11-15T13:22:58;10.70;99.90
26621;DHT22;14253;44.840;10.444;2022-11-15T13:27:54;10.60;99.90
26621;DHT22;14253;44.840;10.444;2022-11-15T13:30:28;10.70;99.90
26621;DHT22;14253;44.840;10.444;2022-11-15T13:32:55;10.70;99.90
26621;DHT22;14253;44.840;10.444;2022-11-15T13:35:24;10.80;99.90
26621;DHT22;14253;44.840;10.444;2022-11-15T13:37:52;10.80;99.90
26621;DHT22;14253;44.840;10.444;2022-11-15T13:40:28;10.70;99.90
26621;DHT22;14253;44.840;10.444;2022-11-15T13:42:59;10.70;99.90
26621;DHT22;14253;44.840;10.444;2022-11-15T13:45:25;10.70;99.90
26621;DHT22;14253;44.840;10.444;2022-11-15T13:47:57;10.70;99.90
26621;DHT22;14253;44.840;10.444;2022-11-15T13:50:33;10.70;99.90
26621;DHT22;14253;44.840;10.444;2022-11-15T13:53:03;10.60;99.90
26621;DHT22;14253;44.840;10.444;2022-11-15T13:55:30;10.60;99.90
26621;DHT22;14253;44.840;10.444;2022-11-15T13:58:00;10.60;99.90
26621;DHT22;14253;44.840;10.444;2022-11-15T14:00:42;10.70;99.90
26621;DHT22;14253;44.840;10.444;2022-11-15T14:03:22;10.70;99.90
26621;DHT22;14253;44.840;10.444;2022-11-15T14:06:29;10.70;99.90
26621;DHT22;14253;44.840;10.444;2022-11-15T14:11:29;10.60;99.90
26621;DHT22;14253;44.840;10.444;2022-11-15T14:16:40;10.50;99.90
26621;DHT22;14253;44.840;10.444;2022-11-15T14:19:53;10.50;99.90
26621;DHT22;14253;44.840;10.444;2022-11-15T14:24:36;10.50;99.90
26621;DHT22;14253;44.840;10.444;2022-11-15T14:27:39;10.50;99.90
26621;DHT22;14253;44.840;10.444;2022-11-15T14:30:15;10.50;99.90
26621;DHT22;14253;44.840;10.444;2022-11-15T14:32:50;10.50;99.90
26621;DHT22;14253;44.840;10.444;2022-11-15T14:35:20;10.50;99.90
26621;DHT22;14253;44.840;10.444;2022-11-15T14:37:48;10.50;99.90
26621;DHT22;14253;44.840;10.444;2022-11-15T14:40:20;10.50;99.90
26621;DHT22;14253;44.840;10.444;2022-11-15T14:42:48;10.50;99.90
26621;DHT22;14253;44.840;10.444;2022-11-15T14:45:17;10.50;99.90
26621;DHT22;14253;44.840;10.444;2022-11-15T14:47:44;10.40;99.90
26621;DHT22;14253;44.840;10.444;2022-11-15T14:50:15;10.40;99.90
26621;DHT22;14253;44.840;10.444;2022-11-15T14:52:43;10.40;99.90
26621;DHT22;14253;44.840;10.444;2022-11-15T14:55:29;10.40;99.90
26621;DHT22;14253;44.840;10.444;2022-11-15T14:57:56;10.40;99.90
26621;DHT22;14253;44.840;10.444;2022-11-15T15:00:23;10.40;99.90
26621;DHT22;14253;44.840;10.444;2022-11-15T15:02:52;10.40;99.90
26621;DHT22;14253;44.840;10.444;2022-11-15T15:05:24;10.50;99.90
26621;DHT22;14253;44.840;10.444;2022-11-15T15:07:50;10.50;99.90
26621;DHT22;14253;44.840;10.444;2022-11-15T15:10:20;10.60;99.90
26621;DHT22;14253;44.840;10.444;2022-11-15T15:12:46;10.60;99.90
26621;DHT22;14253;44.840;10.444;2022-11-15T15:15:15;10.50;99.90
26621;DHT22;14253;44.840;10.444;2022-11-15T15:17:41;10.50;99.90
26621;DHT22;14253;44.840;10.444;2022-11-15T15:20:08;10.40;99.90
26621;DHT22;14253;44.840;10.444;2022-11-15T15:22:34;10.50;99.90
26621;DHT22;14253;44.840;10.444;2022-11-15T15:25:00;10.50;99.90
26621;DHT22;14253;44.840;10.444;2022-11-15T15:27:25;10.50;99.90
26621;DHT22;14253;44.840;10.444;2022-11-15T15:29:51;10.50;99.90
26621;DHT22;14253;44.840;10.444;2022-11-15T15:32:17;10.40;99.90
26621;DHT22;14253;44.840;10.444;2022-11-15T15:34:43;10.40;99.90
26621;DHT22;14253;44.840;10.444;2022-11-15T15:37:24;10.30;99.90
26621;DHT22;14253;44.840;10.444;2022-11-15T15:39:54;10.30;99.90
26621;DHT22;14253;44.840;10.444;2022-11-15T15:42:21;10.40;99.90
26621;DHT22;14253;44.840;10.444;2022-11-15T15:44:48;10.40;99.90
26621;DHT22;14253;44.840;10.444;2022-11-15T15:47:20;10.40;99.90
26621;DHT22;14253;44.840;10.444;2022-11-15T15:49:47;10.50;99.90
26621;DHT22;14253;44.840;10.444;2022-11-15T15:52:13;10.50;99.90
26621;DHT22;14253;44.840;10.444;2022-11-15T15:54:39;10.40;99.90
26621;DHT22;14253;44.840;10.444;2022-11-15T15:57:06;10.40;99.90
26621;DHT22;14253;44.840;10.444;2022-11-15T15:59:34;10.40;99.90
26621;DHT22;14253;44.840;10.444;2022-11-15T16:02:00;10.40;99.90
26621;DHT22;14253;44.840;10.444;2022-11-15T16:04:26;10.40;99.90
26621;DHT22;14253;44.840;10.444;2022-11-15T16:07:00;10.40;99.90
26621;DHT22;14253;44.840;10.444;2022-11-15T16:09:27;10.40;99.90
26621;DHT22;14253;44.840;10.444;2022-11-15T16:12:11;10.40;99.90
26621;DHT22;14253;44.840;10.444;2022-11-15T16:14:37;10.40;99.90
26621;DHT22;14253;44.840;10.444;2022-11-15T16:17:03;10.40;99.90
26621;DHT22;14253;44.840;10.444;2022-11-15T16:19:29;10.40;99.90
26621;DHT22;14253;44.840;10.444;2022-11-15T16:21:55;10.40;99.90
26621;DHT22;14253;44.840;10.444;2022-11-15T16:24:22;10.30;99.90
26621;DHT22;14253;44.840;10.444;2022-11-15T16:26:50;10.30;99.90
26621;DHT22;14253;44.840;10.444;2022-11-15T16:29:16;10.30;99.90
26621;DHT22;14253;44.840;10.444;2022-11-15T16:31:43;10.30;99.90
26621;DHT22;14253;44.840;10.444;2022-11-15T16:34:09;10.30;99.90
26621;DHT22;14253;44.840;10.444;2022-11-15T16:36:35;10.30;99.90
26621;DHT22;14253;44.840;10.444;2022-11-15T16:39:01;10.30;99.90
26621;DHT22;14253;44.840;10.444;2022-11-15T16:41:29;10.30;99.90
26621;DHT22;14253;44.840;10.444;2022-11-15T16:43:55;10.30;99.90
26621;DHT22;14253;44.840;10.444;2022-11-15T16:46:33;10.30;99.90
26621;DHT22;14253;44.840;10.444;2022-11-15T16:49:00;10.30;99.90
26621;DHT22;14253;44.840;10.444;2022-11-15T16:51:26;10.30;99.90
26621;DHT22;14253;44.840;10.444;2022-11-15T16:53:52;10.30;99.90
26621;DHT22;14253;44.840;10.444;2022-11-15T16:56:25;10.30;99.90
26621;DHT22;14253;44.840;10.444;2022-11-15T16:58:52;10.30;99.90
26621;DHT22;14253;44.840;10.444;2022-11-15T17:01:25;10.30;99.90
26621;DHT22;14253;44.840;10.444;2022-11-15T17:03:52;10.30;99.90
26621;DHT22;14253;44.840;10.444;2022-11-15T17:06:18;10.20;99.90
26621;DHT22;14253;44.840;10.444;2022-11-15T17:08:45;10.30;99.90
26621;DHT22;14253;44.840;10.444;2022-11-15T17:11:15;10.30;99.90
26621;DHT22;14253;44.840;10.444;2022-11-15T17:13:41;10.20;99.90
26621;DHT22;14253;44.840;10.444;2022-11-15T17:16:13;10.20;99.90
26621;DHT22;14253;44.840;10.444;2022-11-15T17:18:40;10.20;99.90
26621;DHT22;14253;44.840;10.444;2022-11-15T17:21:17;10.30;99.90
26621;DHT22;14253;44.840;10.444;2022-11-15T17:23:44;10.20;99.90
26621;DHT22;14253;44.840;10.444;2022-11-15T17:26:11;10.20;99.90
26621;DHT22;14253;44.840;10.444;2022-11-15T17:28:39;10.20;99.90
26621;DHT22;14253;44.840;10.444;2022-11-15T17:31:08;10.20;99.90
26621;DHT22;14253;44.840;10.444;2022-11-15T17:33:34;10.20;99.90
26621;DHT22;14253;44.840;10.444;2022-11-15T17:36:03;10.10;99.90
26621;DHT22;14253;44.840;10.444;2022-11-15T17:38:29;10.20;99.90
26621;DHT22;14253;44.840;10.444;2022-11-15T17:41:15;10.20;99.90
26621;DHT22;14253;44.840;10.444;2022-11-15T17:43:41;10.20;99.90
26621;DHT22;14253;44.840;10.444;2022-11-15T17:46:11;10.10;99.90
26621;DHT22;14253;44.840;10.444;2022-11-15T17:48:38;10.10;99.90
26621;DHT22;14253;44.840;10.444;2022-11-15T17:51:07;10.10;99.90
26621;DHT22;14253;44.840;10.444;2022-11-15T17:53:36;10.20;99.90
26621;DHT22;14253;44.840;10.444;2022-11-15T17:56:04;10.10;99.90
26621;DHT22;14253;44.840;10.444;2022-11-15T17:58:32;10.10;99.90
26621;DHT22;14253;44.840;10.444;2022-11-15T18:03:41;10.10;99.90
26621;DHT22;14253;44.840;10.444;2022-11-15T18:06:09;10.10;99.90
26621;DHT22;14253;44.840;10.444;2022-11-15T18:08:37;10.20;99.90
26621;DHT22;14253;44.840;10.444;2022-11-15T18:11:10;10.10;99.90
26621;DHT22;14253;44.840;10.444;2022-11-15T18:13:39;10.10;99.90
26621;DHT22;14253;44.840;10.444;2022-11-15T18:16:08;10.10;99.90
26621;DHT22;14253;44.840;10.444;2022-11-15T18:18:36;10.10;99.90
26621;DHT22;14253;44.840;10.444;2022-11-15T18:21:10;10.10;99.90
26621;DHT22;14253;44.840;10.444;2022-11-15T18:23:37;10.10;99.90
26621;DHT22;14253;44.840;10.444;2022-11-15T18:26:04;10.10;99.90
26621;DHT22;14253;44.840;10.444;2022-11-15T18:28:34;10.00;99.90
26621;DHT22;14253;44.840;10.444;2022-11-15T18:31:02;10.00;99.90
26621;DHT22;14253;44.840;10.444;2022-11-15T18:33:32;10.00;99.90
26621;DHT22;14253;44.840;10.444;2022-11-15T18:36:03;10.00;99.90
26621;DHT22;14253;44.840;10.444;2022-11-15T18:38:30;10.00;99.90
26621;DHT22;14253;44.840;10.444;2022-11-15T18:41:13;10.00;99.90
26621;DHT22;14253;44.840;10.444;2022-11-15T18:43:43;10.00;99.90
26621;DHT22;14253;44.840;10.444;2022-11-15T18:46:15;10.00;99.90
26621;DHT22;14253;44.840;10.444;2022-11-15T18:48:43;10.10;99.90
26621;DHT22;14253;44.840;10.444;2022-11-15T18:51:12;10.10;99.90
26621;DHT22;14253;44.840;10.444;2022-11-15T18:53:39;10.10;99.90
26621;DHT22;14253;44.840;10.444;2022-11-15T18:58:36;10.00;99.90